createdAt,value
2018-04-25T00:01:06.068Z,98602.30
2018-04-25T00:03:34.298Z,98589.45
2018-04-25T00:06:02.594Z,98598.95
2018-04-25T00:08:30.845Z,98596.55
2018-04-25T00:10:59.128Z,98601.44
2018-04-25T00:13:27.391Z,98590.72
2018-04-25T00:15:55.756Z,98595.38
2018-04-25T00:18:23.938Z,98595.86
2018-04-25T00:20:52.210Z,98589.64
2018-04-25T00:23:20.513Z,98584.12
2018-04-25T00:25:48.805Z,98579.34
2018-04-25T00:28:17.059Z,98561.84
2018-04-25T00:30:45.335Z,98571.25
2018-04-25T00:33:13.598Z,98577.67
2018-04-25T00:35:41.891Z,98567.75
2018-04-25T00:38:10.136Z,98567.92
2018-04-25T00:40:38.415Z,98565.68
2018-04-25T00:43:06.684Z,98553.27
2018-04-25T00:45:35.032Z,98564.47
2018-04-25T00:48:03.295Z,98560.92
2018-04-25T00:50:31.567Z,98553.87
2018-04-25T00:53:00.759Z,98556.28
2018-04-25T00:55:29.038Z,98548.09
2018-04-25T00:57:57.311Z,98547.16
2018-04-25T01:00:25.610Z,98542.64
2018-04-25T01:02:53.879Z,98543.79
2018-04-25T01:05:22.161Z,98540.13
2018-04-25T01:07:50.442Z,98529.00
2018-04-25T01:10:18.780Z,98527.40
2018-04-25T01:12:47.040Z,98527.97
2018-04-25T01:15:15.306Z,98527.88
2018-04-25T01:17:43.588Z,98516.72
2018-04-25T01:20:11.871Z,98521.77
2018-04-25T01:22:40.164Z,98521.28
2018-04-25T01:25:15.130Z,98518.23
2018-04-25T01:27:56.530Z,98511.45
2018-04-25T01:30:24.798Z,98520.63
2018-04-25T01:32:53.088Z,98519.62
2018-04-25T01:35:21.365Z,98526.50
2018-04-25T01:37:52.254Z,98526.22
2018-04-25T01:40:20.491Z,98505.06
2018-04-25T01:42:49.822Z,98520.70
2018-04-25T01:45:23.844Z,98510.56
2018-04-25T01:48:05.361Z,98511.28
2018-04-25T01:50:37.489Z,98511.36
2018-04-25T01:53:17.599Z,98512.83
2018-04-25T02:00:44.994Z,98494.78
2018-04-25T02:03:12.701Z,98491.08
2018-04-25T02:05:40.986Z,98484.92
2018-04-25T02:08:09.274Z,98483.11
2018-04-25T02:10:37.598Z,98489.56
2018-04-25T02:13:05.829Z,98481.24
2018-04-25T02:15:34.123Z,98483.81
2018-04-25T02:18:02.393Z,98490.89
2018-04-25T02:20:30.657Z,98486.77
2018-04-25T02:22:58.926Z,98488.53
2018-04-25T02:25:27.216Z,98488.72
2018-04-25T02:27:55.473Z,98485.88
2018-04-25T02:30:23.755Z,98482.33
2018-04-25T02:32:52.018Z,98474.45
2018-04-25T02:35:20.310Z,98471.94
2018-04-25T02:37:48.599Z,98465.30
2018-04-25T02:40:16.879Z,98465.74
2018-04-25T02:42:45.162Z,98465.07
2018-04-25T02:45:13.411Z,98464.77
2018-04-25T02:47:41.683Z,98459.41
2018-04-25T02:50:09.954Z,98464.23
2018-04-25T02:52:38.235Z,98464.92
2018-04-25T02:55:06.488Z,98450.55
2018-04-25T02:57:34.785Z,98455.77
2018-04-25T03:00:03.047Z,98453.24
2018-04-25T03:02:31.359Z,98451.78
2018-04-25T03:04:59.633Z,98462.44
2018-04-25T03:07:27.901Z,98446.09
2018-04-25T03:09:56.219Z,98446.31
2018-04-25T03:12:25.148Z,98445.83
2018-04-25T03:14:53.431Z,98445.09
2018-04-25T03:17:21.719Z,98448.04
2018-04-25T03:19:49.988Z,98448.77
2018-04-25T03:22:18.240Z,98418.55
2018-04-25T03:24:46.548Z,98456.37
2018-04-25T03:27:14.846Z,98461.87
2018-04-25T03:29:43.449Z,98478.41
2018-04-25T03:32:11.729Z,98475.27
2018-04-25T03:34:40.020Z,98461.20
2018-04-25T03:37:08.269Z,98457.77
2018-04-25T03:39:36.563Z,98462.13
2018-04-25T03:42:04.822Z,98466.78
2018-04-25T03:44:33.110Z,98468.25
2018-04-25T03:47:01.475Z,98473.97
2018-04-25T03:49:29.830Z,98475.20
2018-04-25T03:51:58.094Z,98469.94
2018-04-25T03:54:26.406Z,98472.82
2018-04-25T03:56:54.631Z,98470.34
2018-04-25T03:59:22.939Z,98471.14
2018-04-25T04:01:51.225Z,98475.77
2018-04-25T04:04:19.517Z,98469.48
2018-04-25T04:06:47.790Z,98469.36
2018-04-25T04:09:16.079Z,98471.92
2018-04-25T04:11:44.378Z,98474.41
2018-04-25T04:14:12.778Z,98484.48
2018-04-25T04:16:41.058Z,98482.27
2018-04-25T04:19:09.336Z,98487.73
2018-04-25T04:21:38.014Z,98486.61
2018-04-25T04:24:06.278Z,98492.30
2018-04-25T04:26:34.569Z,98492.69
2018-04-25T04:29:03.070Z,98486.94
2018-04-25T04:31:31.348Z,98484.77
2018-04-25T04:33:59.639Z,98486.05
2018-04-25T04:36:27.954Z,98482.73
2018-04-25T04:38:56.365Z,98487.13
2018-04-25T04:41:24.616Z,98489.16
2018-04-25T04:43:52.894Z,98489.56
2018-04-25T04:46:21.146Z,98480.57
2018-04-25T04:48:49.448Z,98496.48
2018-04-25T04:51:17.707Z,98492.34
2018-04-25T04:53:46.117Z,98499.37
2018-04-25T04:56:14.546Z,98498.41
2018-04-25T04:58:42.855Z,98497.61
2018-04-25T05:01:11.554Z,98494.95
2018-04-25T05:03:39.855Z,98491.37
2018-04-25T05:06:08.124Z,98498.23
2018-04-25T05:08:36.449Z,98493.14
2018-04-25T05:11:04.686Z,98498.64
2018-04-25T05:13:32.977Z,98486.42
2018-04-25T05:16:01.616Z,98496.75
2018-04-25T05:18:30.638Z,98499.05
2018-04-25T05:20:58.928Z,98497.28
2018-04-25T05:23:27.350Z,98510.80
2018-04-25T05:25:55.648Z,98493.16
2018-04-25T05:28:23.903Z,98516.17
2018-04-25T05:30:52.259Z,98503.44
2018-04-25T05:33:20.512Z,98499.52
2018-04-25T05:35:48.810Z,98500.37
2018-04-25T05:38:17.066Z,98498.69
2018-04-25T05:40:45.343Z,98513.98
2018-04-25T05:43:13.604Z,98508.09
2018-04-25T05:45:42.057Z,98516.78
2018-04-25T05:48:10.343Z,98513.67
2018-04-25T05:50:38.623Z,98479.75
2018-04-25T05:53:06.935Z,98516.05
2018-04-25T05:55:35.711Z,98520.58
2018-04-25T05:58:03.966Z,98526.41
2018-04-25T06:00:32.257Z,98521.48
2018-04-25T06:03:00.565Z,98516.22
2018-04-25T06:05:28.872Z,98518.65
2018-04-25T06:07:57.161Z,98522.59
2018-04-25T06:10:25.462Z,98508.29
2018-04-25T06:12:53.845Z,98522.44
2018-04-25T06:15:22.231Z,98522.13
2018-04-25T06:17:50.995Z,98532.17
2018-04-25T06:20:19.951Z,98535.66
2018-04-25T06:22:48.180Z,98543.77
2018-04-25T06:25:16.974Z,98538.56
2018-04-25T06:27:45.275Z,98536.33
2018-04-25T06:30:13.595Z,98526.89
2018-04-25T06:32:41.806Z,98530.02
2018-04-25T06:35:10.055Z,98531.27
2018-04-25T06:37:38.404Z,98534.61
2018-04-25T06:40:07.675Z,98541.77
2018-04-25T06:42:36.059Z,98533.44
2018-04-25T06:45:04.363Z,98527.50
2018-04-25T06:47:32.609Z,98538.05
2018-04-25T06:50:00.882Z,98533.66
2018-04-25T06:52:29.164Z,98513.33
2018-04-25T06:54:57.451Z,98543.00
2018-04-25T06:57:25.766Z,98549.09
2018-04-25T06:59:54.046Z,98549.97
2018-04-25T07:02:22.308Z,98548.02
2018-04-25T07:04:50.630Z,98553.36
2018-04-25T07:07:18.939Z,98551.47
2018-04-25T07:09:47.272Z,98544.41
2018-04-25T07:12:15.579Z,98563.02
2018-04-25T07:14:43.982Z,98559.00
2018-04-25T07:17:12.620Z,98549.33
2018-04-25T07:19:41.070Z,98559.23
2018-04-25T07:22:09.364Z,98542.05
2018-04-25T07:24:37.632Z,98557.83
2018-04-25T07:27:06.013Z,98566.64
2018-04-25T07:29:35.523Z,98557.36
2018-04-25T07:32:03.821Z,98561.55
2018-04-25T07:34:32.206Z,98556.28
2018-04-25T07:37:00.499Z,98565.47
2018-04-25T07:39:29.264Z,98575.95
2018-04-25T07:41:57.664Z,98564.98
2018-04-25T07:44:25.895Z,98575.73
2018-04-25T07:46:54.180Z,98562.00
2018-04-25T07:49:22.461Z,98568.75
2018-04-25T07:51:50.762Z,98580.63
2018-04-25T07:54:20.014Z,98543.50
2018-04-25T07:56:48.336Z,98568.72
2018-04-25T07:59:17.474Z,98554.41
2018-04-25T08:01:45.776Z,98571.48
2018-04-25T08:04:14.666Z,98556.81
2018-04-25T08:06:44.038Z,98537.22
2018-04-25T08:09:12.440Z,98576.55
2018-04-25T08:11:40.860Z,98568.53
2018-04-25T08:14:21.056Z,98571.70
2018-04-25T08:17:01.138Z,98584.44
2018-04-25T08:19:41.138Z,98586.38
2018-04-25T08:22:09.403Z,98590.24
2018-04-25T08:24:37.705Z,98593.27
2018-04-25T08:27:06.031Z,98601.72
2018-04-25T08:29:34.314Z,98593.11
2018-04-25T08:32:02.583Z,98610.84
2018-04-25T08:34:31.006Z,98597.09
2018-04-25T08:36:59.329Z,98605.54
2018-04-25T08:39:27.675Z,98609.61
2018-04-25T08:41:55.965Z,98613.03
2018-04-25T08:44:24.274Z,98626.50
2018-04-25T08:46:52.537Z,98629.23
2018-04-25T08:49:20.828Z,98629.94
2018-04-25T08:51:49.603Z,98629.95
2018-04-25T08:54:17.900Z,98636.62
2018-04-25T08:56:46.148Z,98629.63
2018-04-25T08:59:14.503Z,98634.03
2018-04-25T09:01:42.714Z,98643.77
2018-04-25T09:04:11.135Z,98633.01
2018-04-25T09:06:39.402Z,98633.01
2018-04-25T09:09:07.714Z,98635.12
2018-04-25T09:11:36.307Z,98623.59
2018-04-25T09:14:04.575Z,98634.13
2018-04-25T09:16:32.877Z,98629.57
2018-04-25T09:19:01.505Z,98631.93
2018-04-25T09:21:29.867Z,98625.64
2018-04-25T09:23:58.155Z,98644.03
2018-04-25T09:26:27.115Z,98629.98
2018-04-25T09:28:55.460Z,98639.17
2018-04-25T09:31:23.746Z,98636.55
2018-04-25T09:33:52.105Z,98644.37
2018-04-25T09:36:20.376Z,98638.28
2018-04-25T09:38:48.640Z,98642.46
2018-04-25T09:41:16.938Z,98630.83
2018-04-25T09:43:45.204Z,98632.55
2018-04-25T09:46:13.502Z,98631.14
2018-04-25T09:48:41.801Z,98631.06
2018-04-25T09:51:10.082Z,98639.08
2018-04-25T09:53:38.419Z,98634.08
2018-04-25T09:56:06.683Z,98634.63
2018-04-25T09:58:35.014Z,98633.88
2018-04-25T10:01:03.261Z,98639.53
2018-04-25T10:03:31.638Z,98645.66
2018-04-25T10:05:59.904Z,98662.75
2018-04-25T10:08:28.412Z,98638.23
2018-04-25T10:10:56.741Z,98640.48
2018-04-25T10:13:24.978Z,98629.27
2018-04-25T10:15:53.245Z,98624.56
2018-04-25T10:18:21.633Z,98625.75
2018-04-25T10:20:49.868Z,98625.30
2018-04-25T10:23:18.203Z,98615.09
2018-04-25T10:25:46.625Z,98618.58
2018-04-25T10:28:14.835Z,98615.44
2018-04-25T10:30:43.163Z,98627.39
2018-04-25T10:33:11.439Z,98620.61
2018-04-25T10:35:40.743Z,98622.22
2018-04-25T10:38:09.034Z,98616.09
2018-04-25T10:40:37.413Z,98626.86
2018-04-25T10:43:05.675Z,98628.72
2018-04-25T10:45:34.004Z,98636.17
2018-04-25T10:48:02.310Z,98638.23
2018-04-25T10:50:30.654Z,98625.92
2018-04-25T10:52:59.878Z,98626.93
2018-04-25T10:55:28.260Z,98626.84
2018-04-25T10:57:56.496Z,98627.30
2018-04-25T11:00:24.815Z,98652.22
2018-04-25T11:02:53.108Z,98642.95
2018-04-25T11:05:21.455Z,98655.67
2018-04-25T11:07:49.725Z,98635.63
2018-04-25T11:10:19.048Z,98667.22
2018-04-25T11:12:48.345Z,98651.73
2018-04-25T11:15:17.035Z,98662.86
2018-04-25T11:17:46.015Z,98670.98
2018-04-25T11:20:14.938Z,98675.09
2018-04-25T11:22:43.273Z,98657.70
2018-04-25T11:25:12.139Z,98676.94
2018-04-25T11:27:40.985Z,98676.03
2018-04-25T11:30:09.245Z,98676.43
2018-04-25T11:32:38.907Z,98673.20
2018-04-25T11:35:07.628Z,98662.72
2018-04-25T11:37:36.606Z,98670.04
2018-04-25T11:40:04.934Z,98665.08
2018-04-25T11:42:37.826Z,98649.52
2018-04-25T11:45:09.882Z,98651.95
2018-04-25T11:47:38.249Z,98657.98
2018-04-25T11:50:09.344Z,98656.33
2018-04-25T11:52:37.689Z,98664.34
2018-04-25T11:55:07.882Z,98663.26
2018-04-25T11:57:36.790Z,98652.56
2018-04-25T12:00:05.374Z,98661.07
2018-04-25T12:02:33.961Z,98658.14
2018-04-25T12:05:03.308Z,98660.76
2018-04-25T12:07:31.553Z,98647.62
2018-04-25T12:09:59.857Z,98660.78
2018-04-25T12:12:28.596Z,98667.66
2018-04-25T12:14:56.889Z,98664.70
2018-04-25T12:17:25.170Z,98677.36
2018-04-25T12:19:53.478Z,98666.52
2018-04-25T12:22:21.743Z,98674.37
2018-04-25T12:24:50.018Z,98679.72
2018-04-25T12:27:18.347Z,98695.28
2018-04-25T12:29:46.731Z,98688.72
2018-04-25T12:32:15.050Z,98683.95
2018-04-25T12:34:43.365Z,98677.09
2018-04-25T12:37:11.604Z,98686.80
2018-04-25T12:39:39.910Z,98678.23
2018-04-25T12:42:08.596Z,98677.50
2018-04-25T12:44:37.234Z,98681.59
2018-04-25T12:47:05.506Z,98691.83
2018-04-25T12:49:33.844Z,98689.16
2018-04-25T12:52:02.164Z,98696.39
2018-04-25T12:54:30.501Z,98705.57
2018-04-25T12:56:58.863Z,98706.83
2018-04-25T12:59:27.236Z,98710.52
2018-04-25T13:01:55.528Z,98696.67
2018-04-25T13:04:23.816Z,98695.44
2018-04-25T13:06:52.263Z,98694.41
2018-04-25T13:09:20.560Z,98697.27
2018-04-25T13:11:48.871Z,98692.47
2018-04-25T13:14:17.147Z,98696.89
2018-04-25T13:16:45.440Z,98694.17
2018-04-25T13:19:13.783Z,98693.98
2018-04-25T13:21:42.081Z,98691.66
2018-04-25T13:24:12.292Z,98682.70
2018-04-25T13:26:40.609Z,98672.19
2018-04-25T13:29:08.902Z,98663.83
2018-04-25T13:31:37.290Z,98660.05
2018-04-25T13:34:05.552Z,98653.89
2018-04-25T13:36:34.446Z,98662.13
2018-04-25T13:39:02.748Z,98666.46
2018-04-25T13:41:31.235Z,98657.31
2018-04-25T13:43:59.449Z,98645.69
2018-04-25T13:46:27.718Z,98648.53
2018-04-25T13:48:55.986Z,98650.66
2018-04-25T13:51:24.278Z,98648.47
2018-04-25T13:53:52.651Z,98648.58
2018-04-25T13:56:22.724Z,98646.18
2018-04-25T13:58:51.035Z,98658.03
2018-04-25T14:01:19.395Z,98636.97
2018-04-25T14:03:47.664Z,98642.69
2018-04-25T14:06:16.590Z,98641.50
2018-04-25T14:08:44.910Z,98645.27
2018-04-25T14:11:14.103Z,98631.30
2018-04-25T14:13:42.386Z,98627.94
2018-04-25T14:16:10.635Z,98629.63
2018-04-25T14:18:38.914Z,98627.42
2018-04-25T14:21:07.243Z,98603.58
2018-04-25T14:23:35.518Z,98617.70
2018-04-25T14:26:03.787Z,98626.78
2018-04-25T14:28:32.078Z,98622.52
2018-04-25T14:31:00.347Z,98624.14
2018-04-25T14:33:28.652Z,98620.90
2018-04-25T14:35:57.202Z,98621.97
2018-04-25T14:38:25.459Z,98629.00
2018-04-25T14:40:53.735Z,98628.45
2018-04-25T14:43:22.060Z,98593.92
2018-04-25T14:45:50.310Z,98613.69
2018-04-25T14:48:18.697Z,98605.61
2018-04-25T14:50:46.890Z,98594.97
2018-04-25T14:53:15.179Z,98603.55
2018-04-25T14:55:43.442Z,98611.55
2018-04-25T14:58:11.782Z,98593.52
2018-04-25T15:00:40.053Z,98598.35
2018-04-25T15:03:08.411Z,98600.66
2018-04-25T15:05:36.737Z,98598.14
2018-04-25T15:08:05.054Z,98584.00
2018-04-25T15:10:33.394Z,98588.34
2018-04-25T15:13:02.091Z,98578.36
2018-04-25T15:15:30.443Z,98594.52
2018-04-25T15:17:58.685Z,98580.28
2018-04-25T15:20:27.010Z,98592.89
2018-04-25T15:22:55.281Z,98582.58
2018-04-25T15:25:23.750Z,98588.20
2018-04-25T15:27:52.013Z,98584.22
2018-04-25T15:30:20.584Z,98584.75
2018-04-25T15:32:48.945Z,98582.61
2018-04-25T15:35:18.536Z,98570.90
2018-04-25T15:37:48.413Z,98570.45
2018-04-25T15:40:16.680Z,98579.00
2018-04-25T15:42:45.100Z,98576.19
2018-04-25T15:45:14.017Z,98590.63
2018-04-25T15:47:43.627Z,98579.22
2018-04-25T15:50:12.260Z,98581.25
2018-04-25T15:52:41.845Z,98586.67
2018-04-25T15:55:10.909Z,98599.97
2018-04-25T15:57:39.677Z,98605.07
2018-04-25T16:00:07.922Z,98601.30
2018-04-25T16:02:36.231Z,98606.43
2018-04-25T16:05:04.534Z,98598.83
2018-04-25T16:07:33.516Z,98604.84
2018-04-25T16:10:01.835Z,98605.60
2018-04-25T16:12:30.155Z,98607.89
2018-04-25T16:14:58.593Z,98602.62
2018-04-25T16:17:26.928Z,98568.66
2018-04-25T16:19:55.218Z,98604.30
2018-04-25T16:22:23.517Z,98615.27
2018-04-25T16:24:52.023Z,98608.03
2018-04-25T16:27:20.284Z,98600.13
2018-04-25T16:29:48.662Z,98612.19
2018-04-25T16:32:16.929Z,98622.72
2018-04-25T16:34:45.240Z,98635.26
2018-04-25T16:37:13.528Z,98629.93
2018-04-25T16:39:41.830Z,98638.53
2018-04-25T16:42:10.112Z,98639.34
2018-04-25T16:44:38.518Z,98643.22
2018-04-25T16:47:06.712Z,98643.34
2018-04-25T16:49:35.182Z,98653.14
2018-04-25T16:52:03.648Z,98647.36
2018-04-25T16:54:32.123Z,98649.97
2018-04-25T16:57:00.926Z,98647.06
2018-04-25T16:59:29.227Z,98648.28
2018-04-25T17:01:57.571Z,98644.55
2018-04-25T17:04:25.989Z,98640.54
2018-04-25T17:06:54.246Z,98642.78
2018-04-25T17:09:22.620Z,98645.97
2018-04-25T17:11:50.917Z,98659.72
2018-04-25T17:14:19.202Z,98650.86
2018-04-25T17:16:47.821Z,98651.17
2018-04-25T17:19:16.056Z,98656.20
2018-04-25T17:21:44.400Z,98651.22
2018-04-25T17:24:12.681Z,98652.32
2018-04-25T17:26:41.842Z,98658.98
2018-04-25T17:29:10.128Z,98653.18
2018-04-25T17:31:38.420Z,98651.98
2018-04-25T17:34:06.701Z,98648.28
2018-04-25T17:36:35.499Z,98645.58
2018-04-25T17:39:03.865Z,98648.62
2018-04-25T17:41:32.171Z,98645.01
2018-04-25T17:44:00.436Z,98654.88
2018-04-25T17:46:28.747Z,98655.36
2018-04-25T17:48:57.045Z,98650.51
2018-04-25T17:51:25.353Z,98660.61
2018-04-25T17:53:53.643Z,98660.80
2018-04-25T17:56:21.905Z,98660.42
2018-04-25T17:58:50.258Z,98665.45
2018-04-25T18:01:18.659Z,98674.52
2018-04-25T18:03:46.970Z,98671.17
2018-04-25T18:06:15.614Z,98668.96
2018-04-25T18:08:43.909Z,98667.80
2018-04-25T18:11:12.174Z,98677.19
2018-04-25T18:13:40.480Z,98675.59
2018-04-25T18:16:08.739Z,98674.13
2018-04-25T18:18:37.055Z,98676.59
2018-04-25T18:21:05.323Z,98679.83
2018-04-25T18:23:33.940Z,98668.57
2018-04-25T18:26:02.529Z,98678.16
2018-04-25T18:28:30.827Z,98679.00
2018-04-25T18:30:59.396Z,98681.36
2018-04-25T18:33:27.681Z,98684.81
2018-04-25T18:35:55.972Z,98679.40
2018-04-25T18:38:24.285Z,98684.67
2018-04-25T18:40:53.289Z,98695.84
2018-04-25T18:43:21.744Z,98700.33
2018-04-25T18:45:50.013Z,98706.65
2018-04-25T18:48:18.375Z,98708.13
2018-04-25T18:50:46.631Z,98712.29
2018-04-25T18:53:14.943Z,98722.13
2018-04-25T18:55:43.978Z,98727.00
2018-04-25T18:58:12.273Z,98696.28
2018-04-25T19:00:40.588Z,98737.75
2018-04-25T19:03:08.897Z,98744.98
2018-04-25T19:05:37.255Z,98745.99
2018-04-25T19:08:05.495Z,98757.53
2018-04-25T19:10:33.867Z,98757.31
2018-04-25T19:13:02.143Z,98749.49
2018-04-25T19:15:30.685Z,98747.44
2018-04-25T19:17:58.954Z,98762.33
2018-04-25T19:20:27.284Z,98765.25
2018-04-25T19:22:55.557Z,98769.59
2018-04-25T19:25:23.839Z,98764.98
2018-04-25T19:27:52.127Z,98765.43
2018-04-25T19:30:20.499Z,98757.36
2018-04-25T19:32:48.787Z,98756.08
2018-04-25T19:35:17.152Z,98750.21
2018-04-25T19:37:45.493Z,98749.01
2018-04-25T19:40:13.798Z,98747.02
2018-04-25T19:42:42.076Z,98753.80
2018-04-25T19:45:10.383Z,98759.56
2018-04-25T19:47:39.042Z,98743.25
2018-04-25T19:50:07.421Z,98749.22
2018-04-25T19:52:35.711Z,98759.40
2018-04-25T19:55:04.338Z,98767.34
2018-04-25T19:57:32.699Z,98771.42
2018-04-25T20:00:01.898Z,98775.59
2018-04-25T20:02:30.221Z,98778.92
2018-04-25T20:04:59.728Z,98774.65
2018-04-25T20:07:28.412Z,98777.75
2018-04-25T20:09:56.787Z,98774.02
2018-04-25T20:12:25.075Z,98781.44
2018-04-25T20:14:54.488Z,98783.92
2018-04-25T20:17:22.807Z,98783.30
2018-04-25T20:19:51.137Z,98787.25
2018-04-25T20:22:19.413Z,98788.24
2018-04-25T20:24:48.518Z,98785.73
2018-04-25T20:27:17.083Z,98786.72
2018-04-25T20:29:46.316Z,98788.42
2018-04-25T20:32:17.115Z,98783.41
2018-04-25T20:34:45.681Z,98785.36
2018-04-25T20:37:13.997Z,98787.64
2018-04-25T20:39:42.934Z,98764.92
2018-04-25T20:42:11.203Z,98798.23
2018-04-25T20:44:39.633Z,98798.13
2018-04-25T20:47:07.930Z,98796.80
2018-04-25T20:49:36.254Z,98803.98
2018-04-25T20:52:04.534Z,98803.13
2018-04-25T20:54:32.846Z,98805.26
2018-04-25T20:57:01.177Z,98805.22
2018-04-25T20:59:30.235Z,98814.50
2018-04-25T21:01:58.551Z,98809.28
2018-04-25T21:04:26.903Z,98818.70
2018-04-25T21:06:55.323Z,98822.54
2018-04-25T21:09:23.638Z,98830.20
2018-04-25T21:11:51.994Z,98834.80
2018-04-25T21:14:20.346Z,98840.27
2018-04-25T21:16:48.619Z,98842.45
2018-04-25T21:19:16.897Z,98833.92
2018-04-25T21:21:45.191Z,98837.01
2018-04-25T21:24:13.556Z,98834.50
2018-04-25T21:26:41.815Z,98830.06
2018-04-25T21:29:10.071Z,98814.41
2018-04-25T21:31:38.404Z,98819.23
2018-04-25T21:34:06.666Z,98814.98
2018-04-25T21:36:35.009Z,98825.81
2018-04-25T21:39:03.245Z,98827.84
2018-04-25T21:41:31.544Z,98835.09
2018-04-25T21:43:59.788Z,98824.02
2018-04-25T21:46:28.099Z,98835.02
2018-04-25T21:48:56.415Z,98835.22
2018-04-25T21:51:24.751Z,98833.19
2018-04-25T21:53:52.978Z,98839.50
2018-04-25T21:56:21.316Z,98838.30
2018-04-25T21:58:49.693Z,98843.28
2018-04-25T22:01:18.090Z,98845.13
2018-04-25T22:03:46.406Z,98840.21
2018-04-25T22:06:14.688Z,98849.28
2018-04-25T22:08:42.972Z,98843.41
2018-04-25T22:11:11.393Z,98847.05
2018-04-25T22:13:39.687Z,98843.66
2018-04-25T22:16:08.047Z,98854.55
2018-04-25T22:18:36.313Z,98850.56
2018-04-25T22:21:04.603Z,98852.55
2018-04-25T22:23:32.970Z,98845.48
2018-04-25T22:26:01.227Z,98847.91
2018-04-25T22:28:29.535Z,98856.23
2018-04-25T22:30:57.867Z,98847.63
2018-04-25T22:33:26.156Z,98855.27
2018-04-25T22:35:54.427Z,98848.17
2018-04-25T22:38:22.722Z,98861.41
2018-04-25T22:40:50.983Z,98869.17
2018-04-25T22:43:19.282Z,98868.23
2018-04-25T22:45:47.551Z,98874.66
2018-04-25T22:48:15.870Z,98864.20
2018-04-25T22:50:44.127Z,98869.83
2018-04-25T22:53:12.464Z,98868.98
2018-04-25T22:55:40.773Z,98863.96
2018-04-25T22:58:09.067Z,98868.74
2018-04-25T23:00:37.373Z,98863.53
2018-04-25T23:03:06.540Z,98865.72
2018-04-25T23:05:34.801Z,98875.67
2018-04-25T23:08:03.311Z,98869.59
2018-04-25T23:10:31.580Z,98876.31
2018-04-25T23:12:59.870Z,98878.41
2018-04-25T23:15:28.141Z,98886.40
2018-04-25T23:17:56.410Z,98888.09
2018-04-25T23:20:24.682Z,98884.40
2018-04-25T23:22:52.952Z,98879.27
2018-04-25T23:25:21.235Z,98891.05
2018-04-25T23:27:49.504Z,98889.43
2018-04-25T23:30:17.796Z,98891.66
2018-04-25T23:32:46.053Z,98890.76
2018-04-25T23:35:14.341Z,98879.89
2018-04-25T23:37:42.635Z,98875.25
2018-04-25T23:40:10.913Z,98883.09
2018-04-25T23:42:39.179Z,98871.34
2018-04-25T23:45:07.666Z,98876.67
2018-04-25T23:47:35.932Z,98879.98
2018-04-25T23:50:04.208Z,98890.97
2018-04-25T23:52:32.484Z,98888.91
2018-04-25T23:55:00.762Z,98895.12
2018-04-25T23:57:29.062Z,98895.69
2018-04-25T23:59:57.322Z,98897.84
